Terminal Aerodrome Forecast
Issued by NWS

Home | Current Version | Previous Version | Text Only | Print | Product List | Glossary On
Versions: 1 2 3 4 5 6 7 8 9 10 11 12 13 14 15
000
FTUS45 KREV 312321
TAFMMH
TAF
KMMH 312321Z 0100/0124 28010G18KT P6SM FEW220
     FM010400 VRB03KT P6SM SKC
     FM011700 14008KT 6SM HZ FEW220=

USA.gov is the U.S. government's official web portal to all federal, state and local government web resources and services.